Time;durP1;ratioP1;P1;durP2;ratioP2;P2;SDS_P1;SDS_P2;PMS_P1;PMS_P2;Temp;Humidity;BMP_temperature;BMP_pressure;BME280_temperature;BME280_humidity;BME280_pressure;Samples;Min_cycle;Max_cycle;Signal;HPM_P1;HPM_P2
2021/08/02 00:00:24;;;;;;;2.40;1.00;;;20.70;77.10;;;;;;4242158;27;20050;-51
2021/08/02 00:02:56;;;;;;;2.88;1.08;;;20.70;77.20;;;;;;4242233;27;20489;-50
2021/08/02 00:05:21;;;;;;;0.93;0.70;;;20.70;77.20;;;;;;4241656;27;20047;-52
2021/08/02 00:07:50;;;;;;;2.17;1.10;;;20.70;77.30;;;;;;4241486;27;20066;-50
2021/08/02 00:10:14;;;;;;;2.45;1.10;;;20.70;77.30;;;;;;4240802;27;20057;-51
2021/08/02 00:12:42;;;;;;;0.93;0.70;;;20.60;77.30;;;;;;4242199;27;20150;-53
2021/08/02 00:15:05;;;;;;;2.17;1.00;;;20.60;77.30;;;;;;4241971;27;20067;-52
2021/08/02 00:17:27;;;;;;;2.03;1.52;;;20.60;77.40;;;;;;4241926;27;20135;-51
2021/08/02 00:19:49;;;;;;;4.15;1.05;;;20.60;77.50;;;;;;4241815;27;20051;-53
2021/08/02 00:22:12;;;;;;;4.00;1.00;;;20.60;77.50;;;;;;4241931;27;20043;-53
2021/08/02 00:24:35;;;;;;;2.30;1.00;;;20.60;77.40;;;;;;4241100;27;20051;-53
2021/08/02 00:26:57;;;;;;;2.40;0.95;;;20.60;77.50;;;;;;4241435;27;20055;-52
2021/08/02 00:29:21;;;;;;;5.30;1.20;;;20.60;77.50;;;;;;4240825;27;20062;-55
2021/08/02 00:31:44;;;;;;;4.75;0.70;;;20.60;77.50;;;;;;4241608;27;20058;-52
2021/08/02 00:34:06;;;;;;;3.53;0.80;;;20.60;77.60;;;;;;4241855;27;20100;-51
2021/08/02 00:36:34;;;;;;;1.95;0.80;;;20.60;77.60;;;;;;4241734;27;20425;-55
2021/08/02 00:39:04;;;;;;;4.72;1.02;;;20.60;77.60;;;;;;4240679;27;20050;-51
2021/08/02 00:42:10;;;;;;;2.42;1.00;;;20.60;77.60;;;;;;4241283;27;20086;-51
2021/08/02 00:45:02;;;;;;;2.80;1.27;;;20.60;77.70;;;;;;4239718;27;20127;-54
2021/08/02 00:47:29;;;;;;;1.13;0.82;;;20.60;77.60;;;;;;4239734;27;20054;-53
2021/08/02 00:49:56;;;;;;;5.18;1.17;;;20.60;77.70;;;;;;4239642;27;20108;-50
2021/08/02 00:52:21;;;;;;;2.13;1.00;;;20.60;77.70;;;;;;4241093;27;20051;-53
2021/08/02 00:54:45;;;;;;;4.43;1.05;;;20.60;77.80;;;;;;4238453;27;20043;-51
2021/08/02 00:57:12;;;;;;;2.42;0.80;;;20.60;77.80;;;;;;4241541;27;20065;-54
2021/08/02 00:59:34;;;;;;;2.58;1.02;;;20.60;77.80;;;;;;4240545;27;20077;-52
2021/08/02 01:01:58;;;;;;;1.65;1.10;;;20.50;77.70;;;;;;4241366;27;20455;-55
2021/08/02 01:04:24;;;;;;;3.05;1.38;;;20.50;77.80;;;;;;4239770;27;20697;-52
2021/08/02 01:06:49;;;;;;;1.63;1.00;;;20.50;77.90;;;;;;4240913;27;20828;-50
2021/08/02 01:09:17;;;;;;;0.60;0.60;;;20.50;77.70;;;;;;4240771;27;20043;-53
2021/08/02 01:11:40;;;;;;;2.85;0.85;;;20.50;77.70;;;;;;4241130;28;20591;-53
2021/08/02 01:14:06;;;;;;;4.35;1.00;;;20.50;77.70;;;;;;4240836;27;20091;-53
2021/08/02 01:16:30;;;;;;;2.75;1.02;;;20.50;77.80;;;;;;4240183;27;20509;-55
2021/08/02 01:18:53;;;;;;;1.00;0.90;;;20.50;77.80;;;;;;4242050;27;20075;-54
2021/08/02 01:21:19;;;;;;;1.88;0.80;;;20.50;77.80;;;;;;4244757;27;20408;-53
2021/08/02 01:23:48;;;;;;;2.80;1.05;;;20.50;77.80;;;;;;4244041;27;20097;-53
2021/08/02 01:26:37;;;;;;;3.70;0.85;;;20.50;77.80;;;;;;4243911;27;20049;-53
2021/08/02 01:29:40;;;;;;;5.03;1.08;;;20.50;77.80;;;;;;4243475;27;20051;-51
2021/08/02 01:32:05;;;;;;;2.83;1.02;;;20.50;77.80;;;;;;4243296;27;20050;-50
2021/08/02 01:34:27;;;;;;;5.75;1.35;;;20.50;77.80;;;;;;4244068;27;20046;-54
2021/08/02 01:36:50;;;;;;;1.83;1.08;;;20.50;77.80;;;;;;4242957;27;20111;-52
2021/08/02 01:39:15;;;;;;;3.42;1.10;;;20.50;77.90;;;;;;4243821;27;20047;-54
2021/08/02 01:41:37;;;;;;;4.95;1.27;;;20.50;78.00;;;;;;4243941;27;21088;-51
2021/08/02 01:44:00;;;;;;;2.45;0.90;;;20.50;78.10;;;;;;4228550;27;20078;-55
2021/08/02 01:46:29;;;;;;;2.17;1.02;;;20.50;78.10;;;;;;4243855;27;20104;-53
2021/08/02 01:49:01;;;;;;;4.75;1.23;;;20.50;78.20;;;;;;4243254;27;20096;-53
2021/08/02 01:51:29;;;;;;;2.15;1.33;;;20.50;78.20;;;;;;4221747;27;20491;-57
2021/08/02 01:53:56;;;;;;;2.72;1.27;;;20.50;78.20;;;;;;4243994;27;20050;-53
2021/08/02 01:56:22;;;;;;;2.60;1.05;;;20.50;78.20;;;;;;4243257;27;20054;-51
2021/08/02 01:58:55;;;;;;;5.50;1.40;;;20.40;78.20;;;;;;4244328;27;20058;-53
2021/08/02 02:01:25;;;;;;;2.50;0.90;;;20.40;78.20;;;;;;4243804;27;20517;-52
2021/08/02 02:03:50;;;;;;;0.85;0.80;;;20.40;78.20;;;;;;4244040;27;20104;-51
2021/08/02 02:06:16;;;;;;;2.50;1.20;;;20.40;78.30;;;;;;4244159;27;20132;-54
2021/08/02 02:08:49;;;;;;;1.40;1.08;;;20.40;78.30;;;;;;4242894;27;20104;-50
2021/08/02 02:11:23;;;;;;;1.88;1.23;;;20.40;78.40;;;;;;4243854;27;20058;-53
2021/08/02 02:13:53;;;;;;;;;;;20.40;78.30;;;;;;4241966;27;20169;-52
2021/08/02 02:16:19;;;;;;;5.55;1.30;;;20.40;78.40;;;;;;4242574;27;20456;-50
2021/08/02 02:18:49;;;;;;;2.80;1.40;;;20.40;78.40;;;;;;4241942;27;20085;-52
2021/08/02 02:21:13;;;;;;;2.63;1.23;;;20.40;78.30;;;;;;4242041;27;20608;-52
2021/08/02 02:23:35;;;;;;;3.30;1.38;;;20.40;78.40;;;;;;4243113;27;21034;-54
2021/08/02 02:25:58;;;;;;;2.08;1.08;;;20.40;78.50;;;;;;4227815;27;20048;-53
2021/08/02 02:28:23;;;;;;;3.78;1.30;;;20.40;78.50;;;;;;4242810;27;20628;-52
2021/08/02 02:30:53;;;;;;;2.42;1.42;;;20.40;78.60;;;;;;4241699;27;20577;-53
2021/08/02 02:33:18;;;;;;;2.03;1.05;;;20.40;78.60;;;;;;4243191;27;20081;-50
2021/08/02 02:35:42;;;;;;;3.22;1.20;;;20.40;78.60;;;;;;4241928;27;20126;-53
2021/08/02 02:38:04;;;;;;;2.05;0.95;;;20.30;78.70;;;;;;4243088;27;20394;-52
2021/08/02 02:40:28;;;;;;;2.28;1.05;;;20.40;78.70;;;;;;4242876;27;20047;-53
2021/08/02 02:42:51;;;;;;;3.47;1.10;;;20.40;78.70;;;;;;4243015;27;20461;-49
2021/08/02 02:45:17;;;;;;;8.02;1.35;;;20.30;78.70;;;;;;4242844;27;20076;-52
2021/08/02 02:47:42;;;;;;;2.42;1.00;;;20.30;78.70;;;;;;4226892;27;20474;-55
2021/08/02 02:50:07;;;;;;;4.45;1.33;;;20.40;78.70;;;;;;4225807;28;20055;-55
2021/08/02 02:52:29;;;;;;;3.08;1.42;;;20.30;78.70;;;;;;4210222;27;20125;-54
2021/08/02 02:54:54;;;;;;;6.18;1.83;;;20.30;78.70;;;;;;4225776;28;20050;-51
2021/08/02 02:57:18;;;;;;;5.60;1.35;;;20.30;78.60;;;;;;4210061;28;20135;-52
2021/08/02 02:59:42;;;;;;;4.25;0.95;;;20.30;79.40;;;;;;4225456;28;20108;-55
2021/08/02 03:02:08;;;;;;;3.38;1.13;;;20.30;78.40;;;;;;4209721;28;20052;-53
2021/08/02 03:04:33;;;;;;;2.42;1.20;;;20.30;78.30;;;;;;4225620;28;20135;-54
2021/08/02 03:06:56;;;;;;;2.50;0.98;;;20.30;78.10;;;;;;4228866;27;20055;-54
2021/08/02 03:09:21;;;;;;;4.03;1.38;;;20.30;78.10;;;;;;4230187;27;20052;-51
2021/08/02 03:11:44;;;;;;;2.25;1.45;;;20.30;78.00;;;;;;4226590;27;20511;-52
2021/08/02 03:14:06;;;;;;;3.40;1.40;;;20.20;77.90;;;;;;4242510;27;20042;-53
2021/08/02 03:16:28;;;;;;;1.48;1.20;;;20.20;77.80;;;;;;4242333;27;20049;-52
2021/08/02 03:18:52;;;;;;;3.22;1.10;;;20.30;77.80;;;;;;4242200;27;20064;-53
2021/08/02 03:21:16;;;;;;;2.55;1.10;;;20.20;77.70;;;;;;4242326;27;20527;-52
2021/08/02 03:23:59;;;;;;;2.50;1.20;;;20.20;77.70;;;;;;4241930;27;20047;-55
2021/08/02 03:26:26;;;;;;;2.90;1.00;;;20.20;77.70;;;;;;4242251;27;20485;-53
2021/08/02 03:28:54;;;;;;;1.75;0.93;;;20.20;77.70;;;;;;4242031;27;20150;-53
2021/08/02 03:31:21;;;;;;;1.98;0.90;;;20.20;77.70;;;;;;4242751;27;20155;-52
2021/08/02 03:33:45;;;;;;;2.05;0.98;;;20.20;77.70;;;;;;4242080;27;20109;-54
2021/08/02 03:36:13;;;;;;;2.60;0.90;;;20.20;77.70;;;;;;4242743;27;20043;-54
2021/08/02 03:38:36;;;;;;;2.42;0.77;;;20.20;77.80;;;;;;4241918;27;20070;-50
2021/08/02 03:40:59;;;;;;;2.25;1.00;;;20.20;77.80;;;;;;4241554;27;20047;-53
2021/08/02 03:43:22;;;;;;;2.10;1.02;;;20.20;77.90;;;;;;4242171;27;20405;-53
2021/08/02 03:45:45;;;;;;;3.65;0.95;;;20.20;78.00;;;;;;4241942;27;20047;-52
2021/08/02 03:48:08;;;;;;;2.30;1.00;;;20.20;78.00;;;;;;4226530;27;20047;-55
2021/08/02 03:50:30;;;;;;;1.80;0.85;;;20.20;78.00;;;;;;4242343;27;20051;-51
2021/08/02 03:52:53;;;;;;;2.28;0.80;;;20.20;78.00;;;;;;4241965;27;20046;-53
2021/08/02 03:55:17;;;;;;;1.33;0.80;;;20.20;78.90;;;;;;4241918;27;20069;-49
2021/08/02 03:57:39;;;;;;;2.22;0.95;;;20.20;78.00;;;;;;4241288;27;20096;-53
2021/08/02 04:00:02;;;;;;;1.73;1.02;;;20.20;78.00;;;;;;4242355;27;20054;-53
2021/08/02 04:02:33;;;;;;;2.30;0.80;;;20.20;78.00;;;;;;4241810;27;20050;-55
2021/08/02 04:04:56;;;;;;;2.60;1.02;;;20.20;77.90;;;;;;4242182;27;20050;-55
2021/08/02 04:07:18;;;;;;;4.63;1.42;;;20.20;78.00;;;;;;4241926;27;20059;-51
2021/08/02 04:09:42;;;;;;;0.90;0.70;;;20.20;77.80;;;;;;4241667;27;20489;-51
2021/08/02 04:12:05;;;;;;;3.03;1.30;;;20.20;77.80;;;;;;4241636;27;20484;-54
2021/08/02 04:14:27;;;;;;;2.30;1.10;;;20.20;77.80;;;;;;4242069;27;20488;-51
2021/08/02 04:16:49;;;;;;;5.05;1.05;;;20.20;77.90;;;;;;4241997;27;20050;-52
2021/08/02 04:19:11;;;;;;;2.35;1.00;;;20.20;77.90;;;;;;4241447;27;20126;-52
2021/08/02 04:21:33;;;;;;;4.82;1.27;;;20.20;77.80;;;;;;4241354;27;20075;-52
2021/08/02 04:23:55;;;;;;;3.25;1.17;;;20.20;78.00;;;;;;4241426;27;20060;-53
2021/08/02 04:26:19;;;;;;;1.65;0.90;;;20.20;77.90;;;;;;4241786;27;20051;-50
2021/08/02 04:28:41;;;;;;;1.92;1.20;;;20.10;77.90;;;;;;4241735;27;20057;-53
2021/08/02 04:31:03;;;;;;;4.43;1.48;;;20.10;77.90;;;;;;4241569;27;20100;-53
2021/08/02 04:33:26;;;;;;;5.38;1.38;;;20.10;77.90;;;;;;4241684;27;20058;-53
2021/08/02 04:35:48;;;;;;;2.65;1.02;;;20.10;77.90;;;;;;4241694;27;20522;-54
2021/08/02 04:38:10;;;;;;;3.30;1.48;;;20.10;77.80;;;;;;4234960;27;20051;-54
2021/08/02 04:40:32;;;;;;;3.35;1.02;;;20.10;77.80;;;;;;4241638;27;20489;-54
2021/08/02 04:42:55;;;;;;;3.58;1.15;;;20.10;77.80;;;;;;4241474;27;20050;-53
2021/08/02 04:45:17;;;;;;;3.50;1.23;;;20.10;77.90;;;;;;4241666;27;20055;-53
2021/08/02 04:47:40;;;;;;;3.70;1.40;;;20.10;77.80;;;;;;4240143;27;20120;-52
2021/08/02 04:50:01;;;;;;;4.07;1.63;;;20.10;77.80;;;;;;4241413;27;20130;-53
2021/08/02 04:52:23;;;;;;;4.07;1.00;;;20.10;77.80;;;;;;4241499;27;20040;-52
2021/08/02 04:54:46;;;;;;;2.60;1.08;;;20.10;77.80;;;;;;4244858;27;20484;-52
2021/08/02 04:57:07;;;;;;;5.68;1.20;;;20.10;77.90;;;;;;4244744;27;20043;-53
2021/08/02 04:59:31;;;;;;;1.40;0.88;;;20.10;77.90;;;;;;4243200;27;20039;-50
2021/08/02 05:01:53;;;;;;;6.35;1.10;;;20.10;77.80;;;;;;4244363;27;20134;-54
2021/08/02 05:04:14;;;;;;;3.42;0.98;;;20.10;77.60;;;;;;4244500;27;20055;-55
2021/08/02 05:06:36;;;;;;;6.03;1.00;;;20.20;77.50;;;;;;4228829;27;20480;-54
2021/08/02 05:08:59;;;;;;;4.93;1.15;;;20.20;77.10;;;;;;4227441;28;20051;-52
2021/08/02 05:11:20;;;;;;;2.88;1.40;;;20.20;76.80;;;;;;4229453;27;20047;-53
2021/08/02 05:13:43;;;;;;;2.78;1.20;;;20.20;76.80;;;;;;4244431;27;20043;-49
2021/08/02 05:16:07;;;;;;;3.35;0.90;;;20.20;76.70;;;;;;4244319;27;20127;-51
2021/08/02 05:18:29;;;;;;;5.28;1.33;;;20.20;76.60;;;;;;4244398;27;20051;-52
2021/08/02 05:20:51;;;;;;;3.22;1.05;;;20.20;76.60;;;;;;4244298;27;20409;-48
2021/08/02 05:23:14;;;;;;;3.65;1.48;;;20.20;76.60;;;;;;4244187;27;20039;-51
2021/08/02 05:25:36;;;;;;;4.45;1.27;;;20.10;76.50;;;;;;4244225;27;20055;-50
2021/08/02 05:27:58;;;;;;;4.00;1.20;;;20.20;76.50;;;;;;4244057;27;20582;-50
2021/08/02 05:30:21;;;;;;;2.65;0.98;;;20.20;76.50;;;;;;4228471;27;20468;-51
2021/08/02 05:32:44;;;;;;;5.18;1.17;;;20.10;76.40;;;;;;4244300;27;20100;-50
2021/08/02 05:35:07;;;;;;;2.83;1.08;;;20.10;76.40;;;;;;4243835;27;20053;-53
2021/08/02 05:37:29;;;;;;;4.25;1.05;;;20.10;76.40;;;;;;4243755;27;20776;-52
2021/08/02 05:39:51;;;;;;;1.80;0.80;;;20.10;76.40;;;;;;4244113;27;20508;-55
2021/08/02 05:42:13;;;;;;;5.05;0.95;;;20.10;76.60;;;;;;4243866;27;20067;-54
2021/08/02 05:44:36;;;;;;;4.43;1.30;;;20.20;76.70;;;;;;4244434;27;20062;-54
2021/08/02 05:46:58;;;;;;;2.13;0.95;;;20.30;77.50;;;;;;4242885;27;20047;-55
2021/08/02 05:49:22;;;;;;;4.20;1.48;;;20.30;76.90;;;;;;4244080;27;20100;-54
2021/08/02 05:51:44;;;;;;;3.25;1.42;;;20.30;76.50;;;;;;4243350;27;20054;-54
2021/08/02 05:54:06;;;;;;;2.67;1.30;;;20.30;76.40;;;;;;4243456;27;20058;-55
2021/08/02 05:56:29;;;;;;;6.80;1.00;;;20.30;76.40;;;;;;4244012;27;20413;-53
2021/08/02 05:58:51;;;;;;;4.00;1.25;;;20.20;76.40;;;;;;4243702;27;20133;-54
2021/08/02 06:01:13;;;;;;;5.53;1.35;;;20.30;76.50;;;;;;4226873;28;20050;-55
2021/08/02 06:03:35;;;;;;;5.47;1.98;;;20.30;76.50;;;;;;4226940;28;20062;-54
2021/08/02 06:05:59;;;;;;;4.75;1.30;;;20.30;76.70;;;;;;4226309;28;20048;-52
2021/08/02 06:08:21;;;;;;;4.20;1.10;;;20.20;76.50;;;;;;4241338;27;20536;-53
2021/08/02 06:10:43;;;;;;;7.18;1.65;;;20.20;76.30;;;;;;4243616;27;20070;-55
2021/08/02 06:13:05;;;;;;;3.28;1.20;;;20.20;76.30;;;;;;4243304;27;20066;-54
2021/08/02 06:15:27;;;;;;;6.38;1.73;;;20.20;76.30;;;;;;4242989;27;20047;-57
2021/08/02 06:17:50;;;;;;;5.10;1.65;;;20.30;76.10;;;;;;4243423;27;20534;-53
2021/08/02 06:20:13;;;;;;;3.42;1.63;;;20.20;76.00;;;;;;4243117;27;20051;-55
2021/08/02 06:22:37;;;;;;;4.07;1.25;;;20.20;76.00;;;;;;4242895;27;20387;-56
2021/08/02 06:24:59;;;;;;;3.83;1.75;;;20.30;76.00;;;;;;4242328;27;20092;-56
2021/08/02 06:27:21;;;;;;;6.72;2.08;;;20.30;76.00;;;;;;4242836;27;20055;-53
2021/08/02 06:29:43;;;;;;;8.80;2.03;;;20.30;75.90;;;;;;4243263;27;20122;-52
2021/08/02 06:32:06;;;;;;;6.45;1.40;;;20.30;75.80;;;;;;4243138;27;20039;-55
2021/08/02 06:34:28;;;;;;;2.95;1.10;;;20.30;75.80;;;;;;4242804;27;20043;-50
2021/08/02 06:36:50;;;;;;;3.72;1.23;;;20.30;75.80;;;;;;4242604;27;20122;-56
2021/08/02 06:39:13;;;;;;;2.22;1.38;;;20.20;75.60;;;;;;4242350;27;20051;-55
2021/08/02 06:41:35;;;;;;;4.85;1.27;;;20.20;75.60;;;;;;4242920;27;20069;-54
2021/08/02 06:43:57;;;;;;;1.98;1.20;;;20.20;75.70;;;;;;4229100;27;20125;-55
2021/08/02 06:46:19;;;;;;;4.38;1.13;;;20.20;75.70;;;;;;4226143;27;20051;-52
2021/08/02 06:48:42;;;;;;;4.05;1.08;;;20.20;75.80;;;;;;4225540;28;20051;-55
2021/08/02 06:51:04;;;;;;;1.90;1.10;;;20.20;75.80;;;;;;4236220;27;20046;-54
2021/08/02 06:53:26;;;;;;;4.50;1.00;;;20.20;75.80;;;;;;4242423;27;20039;-55
2021/08/02 06:55:50;;;;;;;3.53;1.10;;;20.20;75.80;;;;;;4242212;27;20146;-53
2021/08/02 06:58:12;;;;;;;3.88;1.00;;;20.20;75.90;;;;;;4242090;27;20047;-51
2021/08/02 07:00:34;;;;;;;3.15;1.00;;;20.20;75.70;;;;;;4242830;27;20035;-53
2021/08/02 07:02:58;;;;;;;8.57;1.50;;;20.30;75.50;;;;;;4242600;27;20051;-55
2021/08/02 07:05:21;;;;;;;6.53;1.77;;;20.30;74.90;;;;;;4242634;27;20053;-51
2021/08/02 07:07:43;;;;;;;7.97;1.52;;;20.40;74.20;;;;;;4241789;27;20072;-54
2021/08/02 07:10:06;;;;;;;7.57;1.15;;;20.50;73.40;;;;;;4242831;27;20511;-53
2021/08/02 07:12:30;;;;;;;3.78;0.98;;;20.60;73.00;;;;;;4242419;27;20043;-53
2021/08/02 07:14:52;;;;;;;4.68;1.33;;;20.60;72.70;;;;;;4241581;27;20051;-55
2021/08/02 07:17:14;;;;;;;6.78;1.48;;;20.70;71.80;;;;;;4240164;27;20054;-52
2021/08/02 07:19:36;;;;;;;6.03;1.33;;;20.80;71.60;;;;;;4242848;27;20051;-54
2021/08/02 07:21:58;;;;;;;5.57;1.60;;;20.80;71.50;;;;;;4242443;27;20050;-54
2021/08/02 07:24:21;;;;;;;4.55;1.38;;;20.90;71.30;;;;;;4242099;27;20055;-54
2021/08/02 07:26:43;;;;;;;4.68;1.13;;;20.80;71.20;;;;;;4242088;27;20131;-53
2021/08/02 07:29:06;;;;;;;3.95;1.00;;;20.80;71.20;;;;;;4241621;27;20049;-51
2021/08/02 07:31:28;;;;;;;4.05;1.02;;;20.70;71.00;;;;;;4242185;27;20481;-54
2021/08/02 07:33:52;;;;;;;4.78;1.10;;;20.70;70.90;;;;;;4242252;27;20051;-53
2021/08/02 07:36:14;;;;;;;2.30;1.08;;;20.60;71.00;;;;;;4241933;27;20045;-50
2021/08/02 07:38:37;;;;;;;3.45;1.30;;;20.60;70.90;;;;;;4209112;28;20056;-56
2021/08/02 07:40:59;;;;;;;2.10;0.90;;;20.60;70.90;;;;;;4225217;28;20100;-54
2021/08/02 07:43:21;;;;;;;3.40;1.00;;;20.50;71.10;;;;;;4225103;28;20136;-52
2021/08/02 07:45:45;;;;;;;5.55;1.20;;;20.50;71.30;;;;;;4225016;28;20048;-51
2021/08/02 07:48:07;;;;;;;1.45;1.00;;;20.50;71.60;;;;;;4225044;28;20127;-53
2021/08/02 07:50:29;;;;;;;3.10;0.90;;;20.50;71.40;;;;;;4225031;28;20753;-52
2021/08/02 07:52:52;;;;;;;2.65;1.00;;;20.40;71.00;;;;;;4241043;27;20146;-52
2021/08/02 07:55:14;;;;;;;1.60;0.82;;;20.40;70.50;;;;;;4242335;27;20138;-54
2021/08/02 07:57:36;;;;;;;2.70;1.35;;;20.40;70.10;;;;;;4242064;27;20043;-52
2021/08/02 08:00:01;;;;;;;1.42;0.90;;;20.40;69.80;;;;;;4240825;27;20099;-55
2021/08/02 08:02:32;;;;;;;0.73;0.73;;;20.40;69.70;;;;;;4241775;27;20061;-58
2021/08/02 08:04:54;;;;;;;3.65;0.80;;;20.40;69.60;;;;;;4241559;27;20043;-55
2021/08/02 08:07:16;;;;;;;1.55;0.60;;;20.40;69.10;;;;;;4232168;27;20058;-57
2021/08/02 08:09:38;;;;;;;3.75;1.08;;;20.50;68.70;;;;;;4241570;27;20070;-58
2021/08/02 08:12:00;;;;;;;2.05;0.63;;;20.50;68.60;;;;;;4241427;27;20481;-56
2021/08/02 08:14:22;;;;;;;0.60;0.60;;;20.50;68.50;;;;;;4241405;27;20054;-55
2021/08/02 08:16:44;;;;;;;0.60;0.60;;;20.50;68.30;;;;;;4240925;27;20057;-55
2021/08/02 08:19:08;;;;;;;1.80;0.52;;;20.50;68.10;;;;;;4232186;27;20094;-54
2021/08/02 08:21:30;;;;;;;1.50;0.80;;;20.60;67.80;;;;;;4241523;27;20111;-57
2021/08/02 08:23:52;;;;;;;1.38;0.68;;;20.60;67.50;;;;;;4241094;27;20129;-56
2021/08/02 08:26:14;;;;;;;1.00;0.55;;;20.70;67.40;;;;;;4241492;27;20076;-56
2021/08/02 08:28:36;;;;;;;5.97;0.70;;;20.70;67.20;;;;;;4241034;27;20055;-57
2021/08/02 08:30:58;;;;;;;2.20;0.82;;;20.70;66.70;;;;;;4241337;27;20047;-54
2021/08/02 08:33:20;;;;;;;1.85;0.60;;;20.70;67.20;;;;;;4241135;27;20047;-56
2021/08/02 08:35:44;;;;;;;5.05;1.00;;;20.80;65.90;;;;;;4241510;27;20569;-55
2021/08/02 08:38:09;;;;;;;1.20;0.68;;;20.80;65.60;;;;;;4233989;27;20482;-57
2021/08/02 08:40:32;;;;;;;3.13;0.73;;;20.90;65.40;;;;;;4241380;27;20086;-54
2021/08/02 08:42:54;;;;;;;1.58;0.60;;;20.90;65.20;;;;;;4241025;27;20062;-53
2021/08/02 08:45:16;;;;;;;3.95;0.95;;;20.90;65.30;;;;;;4241122;28;20043;-57
2021/08/02 08:47:38;;;;;;;1.80;0.65;;;21.00;65.60;;;;;;4240947;28;20057;-56
2021/08/02 08:50:00;;;;;;;1.15;0.70;;;21.00;65.70;;;;;;4240860;27;20051;-54
2021/08/02 08:52:24;;;;;;;2.15;0.55;;;21.00;65.60;;;;;;4241138;27;20042;-55
2021/08/02 08:54:46;;;;;;;1.58;0.70;;;21.10;65.30;;;;;;4241628;27;20043;-56
2021/08/02 08:57:10;;;;;;;2.53;0.60;;;21.10;65.20;;;;;;4241641;27;20051;-54
2021/08/02 08:59:32;;;;;;;3.28;0.70;;;21.10;65.40;;;;;;4241524;27;20066;-52
2021/08/02 09:02:01;;;;;;;1.92;0.98;;;21.10;63.40;;;;;;4241214;27;20059;-55
2021/08/02 09:04:29;;;;;;;2.28;0.60;;;21.10;62.80;;;;;;4241196;28;20417;-57
2021/08/02 09:06:51;;;;;;;2.78;0.82;;;21.20;63.00;;;;;;4240776;27;20438;-53
2021/08/02 09:09:27;;;;;;;3.63;1.10;;;21.10;63.20;;;;;;4241262;27;20047;-54
2021/08/02 09:11:48;;;;;;;3.13;0.93;;;21.10;64.20;;;;;;4241300;27;20092;-54
2021/08/02 09:14:11;;;;;;;5.95;1.10;;;21.10;65.20;;;;;;4240756;27;20108;-55
2021/08/02 09:16:33;;;;;;;4.03;0.90;;;21.00;65.80;;;;;;4239055;28;20417;-59
2021/08/02 09:19:00;;;;;;;4.03;1.38;;;21.00;66.20;;;;;;4239639;27;20520;-53
2021/08/02 09:21:22;;;;;;;2.70;1.00;;;21.00;66.70;;;;;;4240799;27;20055;-51
2021/08/02 09:23:48;;;;;;;2.42;0.70;;;20.90;67.10;;;;;;4240900;27;20039;-49
2021/08/02 09:26:12;;;;;;;5.70;0.90;;;20.90;67.40;;;;;;4240134;27;20051;-52
2021/08/02 09:28:34;;;;;;;2.17;1.05;;;20.90;67.80;;;;;;4233750;28;20123;-51
2021/08/02 09:30:59;;;;;;;2.50;1.02;;;20.90;67.90;;;;;;4240499;27;20809;-52
2021/08/02 09:33:22;;;;;;;2.47;0.88;;;20.90;68.20;;;;;;4239920;27;20126;-54
2021/08/02 09:35:48;;;;;;;2.40;0.75;;;20.80;68.60;;;;;;4231997;27;20590;-54
2021/08/02 09:38:12;;;;;;;3.97;1.10;;;20.80;68.80;;;;;;4232938;27;20059;-51
2021/08/02 09:40:39;;;;;;;0.82;0.68;;;20.80;69.10;;;;;;4242769;27;20552;-53
2021/08/02 09:43:02;;;;;;;2.38;0.68;;;20.80;70.00;;;;;;4243848;27;20059;-53
2021/08/02 09:45:46;;;;;;;2.75;0.80;;;20.80;69.50;;;;;;4243849;27;20085;-52
2021/08/02 09:48:08;;;;;;;3.88;0.80;;;20.80;69.70;;;;;;4243609;27;20083;-48
2021/08/02 09:50:32;;;;;;;0.85;0.70;;;20.80;69.80;;;;;;4243925;27;20092;-52
2021/08/02 09:52:54;;;;;;;2.83;0.70;;;20.80;70.20;;;;;;4243381;27;20099;-52
2021/08/02 09:55:16;;;;;;;2.00;0.90;;;20.80;70.20;;;;;;4242865;27;20052;-48
2021/08/02 09:57:39;;;;;;;1.35;0.70;;;20.90;70.00;;;;;;4243869;27;20072;-50
2021/08/02 10:00:03;;;;;;;1.30;0.88;;;21.00;69.90;;;;;;4243591;27;20043;-53
2021/08/02 10:02:33;;;;;;;3.13;1.05;;;21.00;69.90;;;;;;4243400;27;20047;-49
2021/08/02 10:04:56;;;;;;;6.10;1.13;;;21.10;70.10;;;;;;4243394;27;20416;-53
2021/08/02 10:07:19;;;;;;;6.55;2.03;;;21.10;70.30;;;;;;4243458;27;20070;-53
2021/08/02 10:09:41;;;;;;;3.85;1.00;;;21.10;70.40;;;;;;4243703;27;20138;-52
2021/08/02 10:12:03;;;;;;;3.70;0.75;;;21.10;70.40;;;;;;4243781;27;20088;-52
2021/08/02 10:14:30;;;;;;;2.25;1.00;;;21.10;70.50;;;;;;4242491;27;20138;-53
2021/08/02 10:16:53;;;;;;;6.05;1.67;;;21.10;70.60;;;;;;4241976;27;20062;-53
2021/08/02 10:19:19;;;;;;;2.30;1.00;;;21.10;70.50;;;;;;4241808;27;20043;-52
2021/08/02 10:21:43;;;;;;;4.32;1.33;;;21.10;70.40;;;;;;4241905;27;20053;-52
2021/08/02 10:24:06;;;;;;;4.22;0.90;;;21.10;70.60;;;;;;4243137;27;20051;-53
2021/08/02 10:26:29;;;;;;;0.55;0.55;;;21.10;70.60;;;;;;4243091;27;20047;-53
2021/08/02 10:28:55;;;;;;;2.88;1.10;;;21.20;71.40;;;;;;4243304;27;20058;-55
2021/08/02 10:31:19;;;;;;;6.72;1.40;;;21.20;70.30;;;;;;4242891;27;20448;-50
2021/08/02 10:33:57;;;;;;;2.30;1.00;;;21.30;70.20;;;;;;4247287;27;20047;-47
2021/08/02 10:36:20;;;;;;;7.97;1.27;;;21.30;69.80;;;;;;4242611;27;20046;-53
2021/08/02 10:38:45;;;;;;;3.85;1.20;;;21.40;69.60;;;;;;4227027;27;20044;-50
2021/08/02 10:41:07;;;;;;;3.90;1.20;;;21.40;69.60;;;;;;4210366;28;20044;-52
2021/08/02 10:43:31;;;;;;;3.35;1.23;;;21.40;70.30;;;;;;4225975;28;20494;-50
2021/08/02 10:45:53;;;;;;;6.47;1.55;;;21.40;69.50;;;;;;4237878;27;20047;-52
2021/08/02 10:48:24;;;;;;;5.95;1.25;;;21.40;69.30;;;;;;4242314;27;20043;-52
2021/08/02 10:50:48;;;;;;;3.10;0.83;;;21.40;70.30;;;;;;4238022;27;20043;-54
2021/08/02 10:53:15;;;;;;;8.73;1.42;;;21.40;69.50;;;;;;4242344;27;20286;-54
2021/08/02 10:55:43;;;;;;;3.72;1.40;;;21.40;69.60;;;;;;4236586;27;20405;-52
2021/08/02 10:58:05;;;;;;;5.18;1.88;;;21.40;69.60;;;;;;4228807;27;20080;-53
2021/08/02 11:00:28;;;;;;;4.78;1.30;;;21.50;69.60;;;;;;4241614;27;20492;-53
2021/08/02 11:02:52;;;;;;;4.32;0.88;;;21.50;69.60;;;;;;4236316;27;20047;-50
2021/08/02 11:05:14;;;;;;;0.50;0.50;;;21.40;69.60;;;;;;4242503;27;20055;-52
2021/08/02 11:07:37;;;;;;;1.52;0.77;;;21.40;69.50;;;;;;4242194;27;20043;-53
2021/08/02 11:10:01;;;;;;;3.03;0.80;;;21.50;69.30;;;;;;4236261;27;20051;-51
2021/08/02 11:12:23;;;;;;;1.90;0.80;;;21.50;69.20;;;;;;4241413;27;20398;-53
2021/08/02 11:14:47;;;;;;;6.28;0.93;;;21.50;69.20;;;;;;4241631;27;20047;-55
2021/08/02 11:17:16;;;;;;;1.23;0.75;;;21.40;69.20;;;;;;4242375;27;20559;-49
2021/08/02 11:20:00;;;;;;;1.27;0.60;;;21.50;69.30;;;;;;4235884;27;20043;-50
2021/08/02 11:22:22;;;;;;;2.17;0.75;;;21.50;69.40;;;;;;4242061;27;20054;-54
2021/08/02 11:24:56;;;;;;;2.08;0.70;;;21.50;69.30;;;;;;4242074;27;20047;-57
2021/08/02 11:27:19;;;;;;;3.15;1.23;;;21.50;69.40;;;;;;4242145;27;20051;-54
2021/08/02 11:29:41;;;;;;;1.70;0.70;;;21.50;69.40;;;;;;4233380;27;20059;-53
2021/08/02 11:32:06;;;;;;;1.05;0.45;;;21.50;69.30;;;;;;4241265;27;20053;-53
2021/08/02 11:34:29;;;;;;;1.38;0.77;;;21.50;69.20;;;;;;4241424;27;20053;-52
2021/08/02 11:36:59;;;;;;;1.90;1.00;;;21.50;70.00;;;;;;4241596;27;20550;-53
2021/08/02 11:39:21;;;;;;;1.85;0.70;;;21.50;69.10;;;;;;4241403;27;20062;-52
2021/08/02 11:41:46;;;;;;;1.10;0.50;;;21.50;69.10;;;;;;4242352;27;20051;-54
2021/08/02 11:44:08;;;;;;;1.10;0.70;;;21.60;69.10;;;;;;4242081;27;20074;-52
2021/08/02 11:46:30;;;;;;;2.83;0.80;;;21.50;68.70;;;;;;4242153;27;20507;-55
2021/08/02 11:48:53;;;;;;;1.38;0.77;;;21.60;68.70;;;;;;4241546;27;20051;-49
2021/08/02 11:51:17;;;;;;;1.77;0.60;;;21.60;68.60;;;;;;4210382;27;20410;-52
2021/08/02 11:53:39;;;;;;;0.40;0.40;;;21.60;68.50;;;;;;4224775;28;20551;-52
2021/08/02 11:56:01;;;;;;;1.02;0.50;;;21.60;68.30;;;;;;4224910;28;20051;-52
2021/08/02 11:58:25;;;;;;;4.03;0.50;;;21.60;68.20;;;;;;4224606;28;20051;-53
2021/08/02 12:00:47;;;;;;;1.95;0.85;;;21.60;68.00;;;;;;4237841;27;20047;-54
2021/08/02 12:03:12;;;;;;;0.55;0.43;;;21.60;68.00;;;;;;4240545;27;20087;-51
2021/08/02 12:05:39;;;;;;;0.90;0.73;;;21.70;68.10;;;;;;4241445;27;20100;-53
2021/08/02 12:08:09;;;;;;;1.23;0.55;;;21.70;67.80;;;;;;4241184;27;20137;-54
2021/08/02 12:10:31;;;;;;;2.75;0.82;;;21.70;67.60;;;;;;4241571;27;20484;-50
2021/08/02 12:12:59;;;;;;;1.58;0.45;;;21.80;67.70;;;;;;4241340;27;20072;-53
2021/08/02 12:15:23;;;;;;;0.70;0.65;;;21.80;67.50;;;;;;4241274;27;20054;-50
2021/08/02 12:17:49;;;;;;;1.10;0.65;;;21.90;67.30;;;;;;4239520;27;20049;-50
2021/08/02 12:20:12;;;;;;;0.57;0.50;;;21.90;67.10;;;;;;4241144;27;20908;-52
2021/08/02 12:22:38;;;;;;;0.60;0.52;;;21.90;67.00;;;;;;4241204;27;20043;-52
2021/08/02 12:25:00;;;;;;;1.83;0.50;;;22.00;67.00;;;;;;4240931;27;20092;-54
2021/08/02 12:27:26;;;;;;;1.23;0.70;;;22.00;67.90;;;;;;4242060;27;20223;-54
2021/08/02 12:30:00;;;;;;;1.13;0.68;;;22.00;67.00;;;;;;4241218;27;20051;-49
2021/08/02 12:32:37;;;;;;;0.60;0.60;;;22.10;67.00;;;;;;4241511;27;20508;-54